Time;durP1;ratioP1;P1;durP2;ratioP2;P2;SDS_P1;SDS_P2;PMS_P1;PMS_P2;Temp;Humidity;BMP_temperature;BMP_pressure;BME280_temperature;BME280_humidity;BME280_pressure;Samples;Min_cycle;Max_cycle;Signal;HPM_P1;HPM_P2
2021/11/06 00:00:37;;;;;;;1.20;0.80;;;;;;;;;;5074503;28;20052;-36
2021/11/06 00:03:03;;;;;;;0.63;0.52;;;;;;;;;;5074256;28;20479;-36
2021/11/06 00:05:28;;;;;;;1.25;0.80;;;;;;;;;;5074166;28;20104;-36
2021/11/06 00:07:54;;;;;;;1.90;1.20;;;;;;;;;;5073070;28;20024;-36
2021/11/06 00:10:19;;;;;;;0.75;0.55;;;;;;;;;;5074040;28;20012;-36
2021/11/06 00:12:45;;;;;;;2.58;0.88;;;;;;;;;;5074383;28;20032;-36
2021/11/06 00:15:11;;;;;;;1.20;1.05;;;;;;;;;;5074391;28;20013;-37
2021/11/06 00:17:37;;;;;;;2.17;1.20;;;;;;;;;;5072756;28;20089;-36
2021/11/06 00:20:04;;;;;;;4.05;1.33;;;;;;;;;;5074218;28;20024;-36
2021/11/06 00:22:30;;;;;;;1.58;1.00;;;;;;;;;;5073864;28;20540;-36
2021/11/06 00:24:55;;;;;;;6.07;1.80;;;;;;;;;;5074222;28;20088;-36
2021/11/06 00:27:21;;;;;;;1.30;1.20;;;;;;;;;;5073671;28;20047;-36
2021/11/06 00:29:46;;;;;;;2.08;1.10;;;;;;;;;;5074093;28;20020;-36
2021/11/06 00:32:12;;;;;;;1.52;0.85;;;;;;;;;;5073870;28;20390;-36
2021/11/06 00:34:37;;;;;;;1.45;1.10;;;;;;;;;;5073696;28;20066;-36
2021/11/06 00:37:03;;;;;;;1.15;0.90;;;;;;;;;;5073965;28;20036;-36
2021/11/06 00:39:28;;;;;;;1.10;0.80;;;;;;;;;;5073536;28;20433;-36
2021/11/06 00:41:54;;;;;;;1.15;1.00;;;;;;;;;;5073429;28;20029;-36
2021/11/06 00:44:20;;;;;;;1.38;1.10;;;;;;;;;;5073529;28;20024;-36
2021/11/06 00:46:45;;;;;;;2.33;1.10;;;;;;;;;;5073596;28;20017;-36
2021/11/06 00:49:11;;;;;;;2.08;1.02;;;;;;;;;;5073480;28;20387;-36
2021/11/06 00:51:37;;;;;;;1.33;1.10;;;;;;;;;;5055518;28;20028;-36
2021/11/06 00:54:03;;;;;;;1.42;1.25;;;;;;;;;;5073432;28;20360;-36
2021/11/06 00:56:28;;;;;;;1.38;0.93;;;;;;;;;;5073204;28;20032;-36
2021/11/06 00:58:54;;;;;;;0.68;0.47;;;;;;;;;;5073355;28;20016;-36
2021/11/06 01:01:19;;;;;;;1.52;0.88;;;;;;;;;;5073407;28;20486;-36
2021/11/06 01:03:45;;;;;;;1.80;1.10;;;;;;;;;;5073245;28;20025;-36
2021/11/06 01:06:10;;;;;;;2.88;0.88;;;;;;;;;;5055349;28;20032;-36
2021/11/06 01:08:36;;;;;;;2.30;1.00;;;;;;;;;;5073151;28;20023;-36
2021/11/06 01:11:01;;;;;;;1.38;0.85;;;;;;;;;;5073025;28;20025;-36
2021/11/06 01:13:27;;;;;;;3.22;1.08;;;;;;;;;;5072995;28;20495;-36
2021/11/06 01:15:52;;;;;;;1.45;1.20;;;;;;;;;;5055085;28;20400;-36
2021/11/06 01:18:18;;;;;;;2.45;1.42;;;;;;;;;;5072943;28;20203;-36
2021/11/06 01:20:43;;;;;;;2.97;0.93;;;;;;;;;;5073070;28;20032;-36
2021/11/06 01:23:09;;;;;;;1.00;0.90;;;;;;;;;;5072812;28;20020;-36
2021/11/06 01:25:36;;;;;;;1.90;1.23;;;;;;;;;;5072609;28;20054;-36
2021/11/06 01:28:02;;;;;;;1.58;1.27;;;;;;;;;;5072546;28;20098;-36
2021/11/06 01:30:27;;;;;;;1.33;0.98;;;;;;;;;;5054500;28;20029;-36
2021/11/06 01:32:53;;;;;;;1.10;1.00;;;;;;;;;;5072851;28;20016;-36
2021/11/06 01:35:19;;;;;;;0.98;0.95;;;;;;;;;;5072263;28;20052;-36
2021/11/06 01:37:45;;;;;;;1.30;1.10;;;;;;;;;;5072399;28;20070;-36
2021/11/06 01:40:11;;;;;;;2.45;1.05;;;;;;;;;;5072369;28;20033;-36
2021/11/06 01:42:38;;;;;;;3.45;1.50;;;;;;;;;;5072660;28;20058;-36
2021/11/06 01:45:04;;;;;;;4.35;1.20;;;;;;;;;;5054392;28;20028;-36
2021/11/06 01:47:29;;;;;;;2.33;1.15;;;;;;;;;;5072525;28;20071;-36
2021/11/06 01:49:55;;;;;;;5.15;0.60;;;;;;;;;;5072282;28;20121;-36
2021/11/06 01:52:20;;;;;;;1.48;0.90;;;;;;;;;;5072097;28;20028;-36
2021/11/06 01:54:46;;;;;;;1.10;1.00;;;;;;;;;;5072535;28;20092;-36
2021/11/06 01:57:11;;;;;;;0.93;0.90;;;;;;;;;;5071954;28;20483;-36
2021/11/06 01:59:37;;;;;;;2.47;1.02;;;;;;;;;;5071972;28;20064;-38
2021/11/06 02:02:02;;;;;;;1.40;1.15;;;;;;;;;;5072039;28;20074;-36
2021/11/06 02:04:28;;;;;;;0.90;0.73;;;;;;;;;;5071896;28;20059;-36
2021/11/06 02:06:54;;;;;;;1.25;0.80;;;;;;;;;;5072212;28;20024;-36
2021/11/06 02:09:19;;;;;;;1.90;1.10;;;;;;;;;;5071743;28;20108;-36
2021/11/06 02:11:45;;;;;;;1.13;0.70;;;;;;;;;;5054082;28;20047;-36
2021/11/06 02:14:10;;;;;;;3.47;1.10;;;;;;;;;;5072019;28;20035;-36
2021/11/06 02:16:36;;;;;;;1.33;0.88;;;;;;;;;;5071720;28;20360;-36
2021/11/06 02:19:02;;;;;;;1.42;0.75;;;;;;;;;;5071854;28;20146;-36
2021/11/06 02:21:28;;;;;;;1.00;0.80;;;;;;;;;;5071866;28;20020;-36
2021/11/06 02:23:53;;;;;;;1.15;0.90;;;;;;;;;;5071978;28;20030;-36
2021/11/06 02:26:20;;;;;;;1.20;0.80;;;;;;;;;;5071657;28;20023;-36
2021/11/06 02:28:51;;;;;;;0.95;0.85;;;;;;;;;;5071581;28;20028;-36
2021/11/06 02:31:17;;;;;;;1.20;1.10;;;;;;;;;;5071606;28;20021;-36
2021/11/06 02:33:42;;;;;;;1.35;1.00;;;;;;;;;;5071437;28;20048;-36
2021/11/06 02:36:07;;;;;;;1.88;1.23;;;;;;;;;;5053427;28;20053;-36
2021/11/06 02:38:33;;;;;;;3.13;1.35;;;;;;;;;;5071673;28;20542;-36
2021/11/06 02:40:59;;;;;;;1.15;0.90;;;;;;;;;;5070880;28;20379;-36
2021/11/06 02:43:25;;;;;;;2.92;1.33;;;;;;;;;;5071878;28;20095;-36
2021/11/06 02:45:50;;;;;;;1.17;0.98;;;;;;;;;;5071453;28;20110;-36
2021/11/06 02:48:15;;;;;;;2.28;1.23;;;;;;;;;;5071508;28;20017;-36
2021/11/06 02:50:41;;;;;;;1.77;0.70;;;;;;;;;;5071524;28;20119;-36
2021/11/06 02:53:07;;;;;;;1.65;1.23;;;;;;;;;;5071417;28;20470;-36
2021/11/06 02:55:32;;;;;;;1.77;1.27;;;;;;;;;;5071327;28;20440;-36
2021/11/06 02:57:58;;;;;;;2.60;1.17;;;;;;;;;;5071435;28;20058;-36
2021/11/06 03:00:24;;;;;;;2.47;1.55;;;;;;;;;;5071308;28;20032;-36
2021/11/06 03:02:49;;;;;;;1.17;0.68;;;;;;;;;;5071665;28;20031;-36
2021/11/06 03:05:15;;;;;;;1.20;0.88;;;;;;;;;;5071223;28;20024;-36
2021/11/06 03:07:41;;;;;;;2.15;1.00;;;;;;;;;;5071148;28;20101;-40
2021/11/06 03:10:08;;;;;;;1.25;1.05;;;;;;;;;;5071158;28;20032;-36
2021/11/06 03:12:34;;;;;;;4.78;1.27;;;;;;;;;;5053218;28;20029;-36
2021/11/06 03:15:00;;;;;;;2.72;1.38;;;;;;;;;;5071272;28;20613;-36
2021/11/06 03:17:25;;;;;;;1.95;1.17;;;;;;;;;;5070892;28;20032;-36
2021/11/06 03:19:51;;;;;;;2.78;1.80;;;;;;;;;;5071120;28;20056;-36
2021/11/06 03:22:16;;;;;;;1.60;1.08;;;;;;;;;;5071163;28;20478;-36
2021/11/06 03:24:41;;;;;;;1.30;1.20;;;;;;;;;;5070971;28;20101;-36
2021/11/06 03:27:07;;;;;;;1.88;1.52;;;;;;;;;;5071316;28;20021;-36
2021/11/06 03:29:33;;;;;;;1.30;0.85;;;;;;;;;;5052915;28;20077;-36
2021/11/06 03:31:59;;;;;;;2.63;1.50;;;;;;;;;;5071004;28;20107;-36
2021/11/06 03:34:25;;;;;;;2.38;1.77;;;;;;;;;;5071156;28;20028;-36
2021/11/06 03:36:51;;;;;;;1.70;1.60;;;;;;;;;;5070631;28;20506;-37
2021/11/06 03:39:16;;;;;;;3.60;1.50;;;;;;;;;;5071091;28;20107;-36
2021/11/06 03:41:42;;;;;;;1.63;1.50;;;;;;;;;;5052835;28;20787;-36
2021/11/06 03:44:07;;;;;;;1.27;1.17;;;;;;;;;;5070861;28;20051;-36
2021/11/06 03:46:33;;;;;;;3.60;1.95;;;;;;;;;;5070650;28;20043;-36
2021/11/06 03:48:59;;;;;;;2.78;1.77;;;;;;;;;;5070744;28;20037;-36
2021/11/06 03:51:24;;;;;;;2.03;1.27;;;;;;;;;;5072700;28;20016;-36
2021/11/06 03:53:50;;;;;;;5.07;1.65;;;;;;;;;;5074722;28;20433;-36
2021/11/06 03:56:15;;;;;;;2.75;1.85;;;;;;;;;;5074459;28;20471;-36
2021/11/06 03:58:41;;;;;;;2.83;1.90;;;;;;;;;;5074265;28;20072;-36
2021/11/06 04:01:06;;;;;;;3.03;1.65;;;;;;;;;;5074420;28;20362;-36
2021/11/06 04:03:32;;;;;;;1.88;1.13;;;;;;;;;;5074520;28;20032;-36
2021/11/06 04:05:57;;;;;;;2.80;1.70;;;;;;;;;;5074323;28;20023;-36
2021/11/06 04:08:23;;;;;;;1.73;1.40;;;;;;;;;;5056108;28;20032;-36
2021/11/06 04:10:48;;;;;;;2.95;1.88;;;;;;;;;;5074448;28;20051;-36
2021/11/06 04:13:14;;;;;;;2.60;2.05;;;;;;;;;;5074333;28;20105;-36
2021/11/06 04:15:40;;;;;;;2.85;2.05;;;;;;;;;;5074073;28;20039;-36
2021/11/06 04:18:06;;;;;;;2.97;1.95;;;;;;;;;;5073921;28;20047;-36
2021/11/06 04:20:31;;;;;;;2.55;1.83;;;;;;;;;;5073811;28;20013;-36
2021/11/06 04:22:57;;;;;;;2.75;1.50;;;;;;;;;;5073993;28;20111;-36
2021/11/06 04:25:22;;;;;;;2.10;1.63;;;;;;;;;;5074043;28;20163;-36
2021/11/06 04:27:48;;;;;;;2.55;1.50;;;;;;;;;;5073869;28;20173;-36
2021/11/06 04:30:14;;;;;;;0.73;0.60;;;;;;;;;;5073693;28;20024;-36
2021/11/06 04:32:40;;;;;;;3.50;1.80;;;;;;;;;;5073733;28;20029;-36
2021/11/06 04:35:05;;;;;;;2.53;1.30;;;;;;;;;;5073790;28;20067;-36
2021/11/06 04:37:31;;;;;;;2.45;1.80;;;;;;;;;;5073543;28;20036;-36
2021/11/06 04:39:56;;;;;;;2.50;1.83;;;;;;;;;;5073876;28;20130;-36
2021/11/06 04:42:22;;;;;;;2.28;2.03;;;;;;;;;;5073558;28;20546;-36
2021/11/06 04:44:47;;;;;;;1.83;1.58;;;;;;;;;;5072295;28;20021;-37
2021/11/06 04:47:13;;;;;;;1.77;1.38;;;;;;;;;;5073554;28;20025;-36
2021/11/06 04:49:39;;;;;;;3.72;1.80;;;;;;;;;;5073444;28;20054;-37
2021/11/06 04:52:05;;;;;;;2.42;1.65;;;;;;;;;;5073343;28;20483;-36
2021/11/06 04:54:30;;;;;;;2.80;1.65;;;;;;;;;;5073288;28;20031;-36
2021/11/06 04:56:56;;;;;;;1.65;1.55;;;;;;;;;;5073195;28;20474;-36
2021/11/06 04:59:22;;;;;;;2.28;1.70;;;;;;;;;;5073047;28;20533;-36
2021/11/06 05:01:48;;;;;;;3.80;1.70;;;;;;;;;;5073212;28;20039;-36
2021/11/06 05:04:14;;;;;;;2.35;1.67;;;;;;;;;;5072626;28;20477;-36
2021/11/06 05:06:39;;;;;;;2.20;1.80;;;;;;;;;;5073000;28;20032;-36
2021/11/06 05:09:05;;;;;;;2.47;1.90;;;;;;;;;;5073312;28;20023;-36
2021/11/06 05:11:30;;;;;;;1.77;1.50;;;;;;;;;;5072897;28;20382;-36
2021/11/06 05:13:56;;;;;;;2.60;2.13;;;;;;;;;;5073016;28;20052;-36
2021/11/06 05:16:22;;;;;;;2.80;1.65;;;;;;;;;;5072885;28;20039;-36
2021/11/06 05:18:47;;;;;;;1.85;1.58;;;;;;;;;;5072785;28;20032;-36
2021/11/06 05:21:13;;;;;;;3.95;1.90;;;;;;;;;;5072700;28;20039;-36
2021/11/06 05:23:38;;;;;;;1.73;1.50;;;;;;;;;;5072785;28;20056;-35
2021/11/06 05:26:04;;;;;;;3.42;1.98;;;;;;;;;;5072642;28;20060;-36
2021/11/06 05:28:29;;;;;;;1.25;1.13;;;;;;;;;;5072518;28;20020;-36
2021/11/06 05:30:55;;;;;;;2.38;1.90;;;;;;;;;;5072626;28;20020;-36
2021/11/06 05:33:20;;;;;;;1.95;1.77;;;;;;;;;;5072565;28;20027;-36
2021/11/06 05:35:46;;;;;;;3.08;1.95;;;;;;;;;;5072427;28;20095;-36
2021/11/06 05:38:12;;;;;;;3.13;2.13;;;;;;;;;;5072476;28;20041;-36
2021/11/06 05:40:37;;;;;;;5.30;2.03;;;;;;;;;;5072269;28;20112;-36
2021/11/06 05:43:03;;;;;;;3.65;1.63;;;;;;;;;;5072668;28;20028;-36
2021/11/06 05:45:28;;;;;;;2.83;2.00;;;;;;;;;;5072377;28;20469;-36
2021/11/06 05:47:54;;;;;;;1.83;1.38;;;;;;;;;;5072225;28;20020;-36
2021/11/06 05:50:20;;;;;;;5.00;1.70;;;;;;;;;;5072282;28;20042;-36
2021/11/06 05:52:45;;;;;;;2.47;2.15;;;;;;;;;;5054368;28;20048;-35
2021/11/06 05:55:13;;;;;;;4.13;2.42;;;;;;;;;;5072065;28;20082;-36
2021/11/06 05:57:38;;;;;;;3.63;1.67;;;;;;;;;;5071969;28;20514;-35
2021/11/06 06:00:18;;;;;;;2.33;1.65;;;;;;;;;;5072019;28;20048;-36
2021/11/06 06:02:44;;;;;;;3.40;1.98;;;;;;;;;;5071868;28;20083;-36
2021/11/06 06:05:10;;;;;;;2.28;1.35;;;;;;;;;;5071890;28;20021;-36
2021/11/06 06:07:36;;;;;;;3.15;2.20;;;;;;;;;;5071873;28;20034;-36
2021/11/06 06:10:02;;;;;;;3.28;1.90;;;;;;;;;;5071831;28;20621;-36
2021/11/06 06:12:28;;;;;;;3.10;1.90;;;;;;;;;;5071689;28;20059;-35
2021/11/06 06:14:54;;;;;;;3.78;2.13;;;;;;;;;;5071031;28;20017;-36
2021/11/06 06:17:19;;;;;;;2.95;2.08;;;;;;;;;;5071535;28;20119;-36
2021/11/06 06:19:45;;;;;;;6.28;2.05;;;;;;;;;;5071705;28;20077;-36
2021/11/06 06:22:10;;;;;;;3.85;2.10;;;;;;;;;;5071997;28;20040;-36
2021/11/06 06:24:36;;;;;;;4.57;2.55;;;;;;;;;;5071465;28;20031;-36
2021/11/06 06:27:01;;;;;;;2.42;1.55;;;;;;;;;;5071713;28;20567;-38
2021/11/06 06:29:27;;;;;;;2.83;1.85;;;;;;;;;;5071499;28;20020;-36
2021/11/06 06:31:52;;;;;;;5.90;2.13;;;;;;;;;;5071588;28;20035;-36
2021/11/06 06:34:18;;;;;;;5.35;1.83;;;;;;;;;;5071616;28;20044;-36
2021/11/06 06:36:43;;;;;;;2.50;2.05;;;;;;;;;;5071168;28;20075;-36
2021/11/06 06:39:09;;;;;;;3.63;2.88;;;;;;;;;;5071752;28;20389;-36
2021/11/06 06:41:35;;;;;;;2.78;2.20;;;;;;;;;;5071639;28;20125;-36
2021/11/06 06:44:00;;;;;;;3.20;2.05;;;;;;;;;;5071374;28;20103;-36
2021/11/06 06:46:26;;;;;;;5.70;3.72;;;;;;;;;;5071601;28;20024;-36
2021/11/06 06:48:52;;;;;;;4.50;2.22;;;;;;;;;;5071326;28;20013;-36
2021/11/06 06:51:18;;;;;;;2.53;1.88;;;;;;;;;;5071313;28;20033;-36
2021/11/06 06:53:44;;;;;;;2.95;2.08;;;;;;;;;;5071243;28;20028;-36
2021/11/06 06:56:10;;;;;;;2.47;1.95;;;;;;;;;;5071188;28;20701;-36
2021/11/06 06:58:35;;;;;;;3.45;1.65;;;;;;;;;;5071113;28;20116;-36
2021/11/06 07:01:01;;;;;;;2.58;1.63;;;;;;;;;;5071224;28;20089;-36
2021/11/06 07:03:27;;;;;;;2.95;2.13;;;;;;;;;;5071188;28;20021;-36
2021/11/06 07:05:53;;;;;;;2.55;1.90;;;;;;;;;;5071183;28;20029;-35
2021/11/06 07:08:20;;;;;;;3.72;1.65;;;;;;;;;;5071158;28;20020;-36
2021/11/06 07:10:46;;;;;;;3.00;2.08;;;;;;;;;;5071146;28;20021;-36
2021/11/06 07:13:16;;;;;;;4.30;2.17;;;;;;;;;;5071339;28;20052;-36
2021/11/06 07:15:42;;;;;;;4.07;2.55;;;;;;;;;;5071128;28;20051;-36
2021/11/06 07:18:07;;;;;;;2.50;1.95;;;;;;;;;;5071317;28;20036;-36
2021/11/06 07:20:33;;;;;;;3.50;2.38;;;;;;;;;;5070821;28;20135;-36
2021/11/06 07:22:59;;;;;;;3.83;2.20;;;;;;;;;;5071167;28;20063;-36
2021/11/06 07:25:24;;;;;;;3.55;1.33;;;;;;;;;;5071294;28;20028;-35
2021/11/06 07:27:51;;;;;;;5.03;2.63;;;;;;;;;;5075184;28;20017;-35
2021/11/06 07:30:17;;;;;;;2.10;1.23;;;;;;;;;;5074960;28;20518;-36
2021/11/06 07:32:43;;;;;;;3.85;2.60;;;;;;;;;;5074798;28;20029;-35
2021/11/06 07:35:08;;;;;;;3.05;1.98;;;;;;;;;;5074633;28;20068;-36
2021/11/06 07:37:36;;;;;;;2.90;1.95;;;;;;;;;;5074759;28;20044;-35
2021/11/06 07:40:03;;;;;;;2.25;1.73;;;;;;;;;;5073448;28;20024;-36
2021/11/06 07:42:28;;;;;;;2.83;2.20;;;;;;;;;;5074655;28;20016;-35
2021/11/06 07:44:54;;;;;;;11.07;3.47;;;;;;;;;;5074606;28;20017;-36
2021/11/06 07:47:20;;;;;;;4.95;1.35;;;;;;;;;;5074946;28;20016;-36
2021/11/06 07:49:45;;;;;;;5.75;2.13;;;;;;;;;;5074435;28;20093;-35
2021/11/06 07:52:11;;;;;;;4.75;2.55;;;;;;;;;;5074531;28;20674;-35
2021/11/06 07:54:36;;;;;;;2.97;1.95;;;;;;;;;;5074663;28;20039;-35
2021/11/06 07:57:02;;;;;;;2.13;1.65;;;;;;;;;;5074306;28;20386;-36
2021/11/06 07:59:28;;;;;;;3.25;2.03;;;;;;;;;;5074562;28;20032;-37
2021/11/06 08:01:53;;;;;;;2.13;1.45;;;;;;;;;;5074421;28;20021;-36
2021/11/06 08:04:19;;;;;;;2.65;2.20;;;;;;;;;;5074272;28;20060;-36
2021/11/06 08:06:44;;;;;;;2.83;2.05;;;;;;;;;;5074236;28;20061;-35
2021/11/06 08:09:10;;;;;;;4.88;2.30;;;;;;;;;;5074086;28;20108;-36
2021/11/06 08:11:35;;;;;;;3.30;2.20;;;;;;;;;;5074145;28;20032;-35
2021/11/06 08:14:01;;;;;;;2.85;1.85;;;;;;;;;;5056211;28;20032;-35
2021/11/06 08:16:27;;;;;;;2.88;1.92;;;;;;;;;;5074162;28;20017;-36
2021/11/06 08:18:52;;;;;;;2.38;2.05;;;;;;;;;;5074011;28;20584;-36
2021/11/06 08:21:18;;;;;;;5.00;2.55;;;;;;;;;;5074304;28;20463;-36
2021/11/06 08:23:44;;;;;;;5.28;2.03;;;;;;;;;;5055906;28;20033;-36
2021/11/06 08:26:10;;;;;;;3.33;2.13;;;;;;;;;;5073944;28;20031;-36
2021/11/06 08:28:35;;;;;;;2.20;1.52;;;;;;;;;;5073695;28;20024;-35
2021/11/06 08:31:01;;;;;;;4.25;2.30;;;;;;;;;;5074036;28;20021;-36
2021/11/06 08:33:31;;;;;;;2.85;2.25;;;;;;;;;;5073711;28;20025;-35
2021/11/06 08:35:57;;;;;;;2.85;1.75;;;;;;;;;;5073630;28;20053;-36
2021/11/06 08:38:22;;;;;;;8.02;1.80;;;;;;;;;;5072670;28;20047;-35
2021/11/06 08:40:50;;;;;;;3.80;1.95;;;;;;;;;;5073438;28;20032;-36
2021/11/06 08:43:16;;;;;;;1.88;1.48;;;;;;;;;;5073726;28;20029;-36
2021/11/06 08:45:42;;;;;;;2.38;1.73;;;;;;;;;;5073652;28;20071;-36
2021/11/06 08:48:08;;;;;;;2.63;1.95;;;;;;;;;;5073522;28;20036;-36
2021/11/06 08:50:33;;;;;;;3.88;2.15;;;;;;;;;;5073569;28;20059;-35
2021/11/06 08:52:59;;;;;;;5.05;1.42;;;;;;;;;;5073302;28;20072;-35
2021/11/06 08:55:25;;;;;;;1.92;1.40;;;;;;;;;;5073456;28;20017;-36
2021/11/06 08:57:51;;;;;;;2.95;1.63;;;;;;;;;;5073290;28;20570;-35
2021/11/06 09:00:22;;;;;;;2.08;1.77;;;;;;;;;;5073430;28;20107;-35
2021/11/06 09:02:48;;;;;;;0.98;0.70;;;;;;;;;;5073258;28;20056;-36
2021/11/06 09:05:13;;;;;;;1.63;1.30;;;;;;;;;;5073241;28;20044;-36
2021/11/06 09:07:39;;;;;;;1.83;1.55;;;;;;;;;;5073119;28;20040;-35
2021/11/06 09:10:06;;;;;;;4.60;1.50;;;;;;;;;;5073417;28;20016;-36
2021/11/06 09:12:32;;;;;;;3.15;1.48;;;;;;;;;;5072974;28;20356;-36
2021/11/06 09:14:58;;;;;;;3.20;2.10;;;;;;;;;;5073052;28;20035;-36
2021/11/06 09:17:23;;;;;;;2.22;1.50;;;;;;;;;;5071949;28;20040;-36
2021/11/06 09:19:50;;;;;;;4.35;1.63;;;;;;;;;;5072838;28;20036;-36
2021/11/06 09:22:16;;;;;;;1.90;1.52;;;;;;;;;;5072868;28;20056;-36
2021/11/06 09:24:41;;;;;;;2.35;1.75;;;;;;;;;;5072740;28;20090;-36
2021/11/06 09:27:07;;;;;;;3.38;1.98;;;;;;;;;;5071485;28;20031;-36
2021/11/06 09:29:32;;;;;;;2.88;1.50;;;;;;;;;;5054873;28;20020;-36
2021/11/06 09:31:58;;;;;;;2.03;1.35;;;;;;;;;;5073043;28;20036;-36
2021/11/06 09:34:24;;;;;;;1.85;1.30;;;;;;;;;;5072654;28;20083;-36
2021/11/06 09:36:49;;;;;;;1.55;1.30;;;;;;;;;;5072178;28;20068;-36
2021/11/06 09:39:15;;;;;;;3.10;1.52;;;;;;;;;;5072528;28;20058;-36
2021/11/06 09:41:41;;;;;;;1.35;1.25;;;;;;;;;;5072303;28;20036;-36
2021/11/06 09:44:07;;;;;;;1.65;0.85;;;;;;;;;;5072350;28;20136;-36
2021/11/06 09:46:33;;;;;;;3.42;1.42;;;;;;;;;;5072305;28;20521;-35
2021/11/06 09:48:58;;;;;;;1.98;1.30;;;;;;;;;;5072097;28;20016;-36
2021/11/06 09:51:24;;;;;;;1.67;0.90;;;;;;;;;;5071048;28;20020;-36
2021/11/06 09:53:51;;;;;;;2.03;1.50;;;;;;;;;;5072151;28;20135;-36
2021/11/06 09:56:22;;;;;;;1.92;1.13;;;;;;;;;;5072111;28;20025;-36
2021/11/06 09:58:48;;;;;;;7.55;1.40;;;;;;;;;;5071968;28;20039;-36
2021/11/06 10:01:14;;;;;;;2.10;1.20;;;;;;;;;;5072064;28;20027;-35
2021/11/06 10:03:39;;;;;;;1.73;1.10;;;;;;;;;;5071947;28;20036;-36
2021/11/06 10:06:06;;;;;;;2.63;1.48;;;;;;;;;;5071986;28;20016;-35
2021/11/06 10:08:36;;;;;;;3.35;1.17;;;;;;;;;;5054091;28;20032;-36
2021/11/06 10:11:03;;;;;;;1.50;0.90;;;;;;;;;;5072172;28;20086;-36
2021/11/06 10:13:32;;;;;;;2.40;1.02;;;;;;;;;;5071759;28;20047;-36
2021/11/06 10:15:58;;;;;;;0.68;0.60;;;;;;;;;;5071971;28;20401;-36
2021/11/06 10:18:25;;;;;;;1.80;1.30;;;;;;;;;;5071547;28;20045;-36
2021/11/06 10:21:01;;;;;;;1.02;0.70;;;;;;;;;;5053884;28;20718;-35
2021/11/06 10:23:32;;;;;;;2.22;1.17;;;;;;;;;;5071677;28;20037;-36
2021/11/06 10:26:18;;;;;;;3.75;1.77;;;;;;;;;;5071703;28;20029;-36
2021/11/06 10:28:47;;;;;;;1.73;1.33;;;;;;;;;;5071480;28;20119;-36
2021/11/06 10:31:12;;;;;;;2.40;1.65;;;;;;;;;;5071657;28;20475;-36
2021/11/06 10:33:42;;;;;;;1.27;1.15;;;;;;;;;;5071466;28;20029;-36
2021/11/06 10:36:15;;;;;;;2.45;1.15;;;;;;;;;;5071495;28;20181;-36
2021/11/06 10:38:40;;;;;;;1.48;1.05;;;;;;;;;;5071515;28;20102;-36
2021/11/06 10:41:08;;;;;;;1.27;1.05;;;;;;;;;;5071494;28;20013;-35
2021/11/06 10:43:35;;;;;;;1.30;1.20;;;;;;;;;;5071416;28;20030;-36
2021/11/06 10:46:02;;;;;;;0.80;0.63;;;;;;;;;;5071414;28;20348;-36
2021/11/06 10:48:33;;;;;;;2.67;1.30;;;;;;;;;;5071393;28;20119;-36
2021/11/06 10:51:05;;;;;;;1.48;1.08;;;;;;;;;;5071591;28;20033;-35
2021/11/06 10:53:34;;;;;;;1.85;1.15;;;;;;;;;;5071285;28;20020;-36
2021/11/06 10:56:01;;;;;;;1.58;1.48;;;;;;;;;;5071207;28;20082;-36
2021/11/06 10:58:28;;;;;;;2.95;1.02;;;;;;;;;;5071252;28;20083;-35
2021/11/06 11:00:55;;;;;;;1.40;0.90;;;;;;;;;;5070636;28;20022;-36
2021/11/06 11:03:25;;;;;;;1.10;1.00;;;;;;;;;;5053305;28;20387;-36
2021/11/06 11:05:50;;;;;;;0.90;0.68;;;;;;;;;;5071190;28;20521;-36
2021/11/06 11:08:16;;;;;;;2.00;1.25;;;;;;;;;;5071141;28;20040;-36
2021/11/06 11:10:43;;;;;;;2.70;1.67;;;;;;;;;;5071156;28;20020;-36
2021/11/06 11:13:09;;;;;;;1.20;0.77;;;;;;;;;;5071274;28;20540;-36
2021/11/06 11:15:35;;;;;;;5.55;1.30;;;;;;;;;;5071259;28;20025;-36
2021/11/06 11:18:01;;;;;;;1.55;1.00;;;;;;;;;;5071088;28;20090;-36
2021/11/06 11:20:28;;;;;;;1.10;1.00;;;;;;;;;;5071077;28;20062;-36
2021/11/06 11:23:11;;;;;;;1.30;1.05;;;;;;;;;;5071234;28;20036;-36
2021/11/06 11:25:37;;;;;;;2.10;1.23;;;;;;;;;;5070983;28;20093;-36
2021/11/06 11:28:04;;;;;;;0.80;0.80;;;;;;;;;;5070958;28;20035;-36
2021/11/06 11:30:29;;;;;;;1.67;1.00;;;;;;;;;;5070879;28;20032;-36
2021/11/06 11:32:55;;;;;;;1.05;0.93;;;;;;;;;;5071005;28;20020;-36
2021/11/06 11:35:21;;;;;;;1.45;1.35;;;;;;;;;;5049516;28;20041;-36
2021/11/06 11:37:47;;;;;;;1.63;1.10;;;;;;;;;;5050726;28;20112;-35
2021/11/06 11:40:12;;;;;;;2.03;1.20;;;;;;;;;;5051193;28;20033;-36
2021/11/06 11:42:41;;;;;;;1.40;1.10;;;;;;;;;;5051094;28;20514;-36
2021/11/06 11:45:26;;;;;;;1.70;1.13;;;;;;;;;;5050917;28;20074;-36
2021/11/06 11:47:55;;;;;;;1.77;1.05;;;;;;;;;;5051019;28;20387;-36
2021/11/06 11:50:30;;;;;;;1.80;1.38;;;;;;;;;;5050736;28;20025;-36
2021/11/06 11:52:56;;;;;;;0.52;0.52;;;;;;;;;;5049468;28;20033;-36
2021/11/06 11:55:33;;;;;;;2.03;0.60;;;;;;;;;;5050835;28;20013;-36
2021/11/06 11:58:04;;;;;;;1.75;1.05;;;;;;;;;;5050603;28;20060;-36
2021/11/06 12:00:30;;;;;;;1.52;1.23;;;;;;;;;;5050731;28;20123;-36
2021/11/06 12:03:00;;;;;;;1.15;0.90;;;;;;;;;;5051005;28;20101;-36
2021/11/06 12:05:26;;;;;;;1.67;1.27;;;;;;;;;;5050624;28;20033;-36
2021/11/06 12:08:10;;;;;;;0.70;0.70;;;;;;;;;;5050878;28;20554;-36
2021/11/06 12:10:36;;;;;;;1.20;0.90;;;;;;;;;;5050882;28;20025;-36
2021/11/06 12:13:02;;;;;;;2.55;1.20;;;;;;;;;;5052154;28;20059;-36
2021/11/06 12:15:47;;;;;;;1.15;0.90;;;;;;;;;;5054166;28;20391;-36
2021/11/06 12:18:31;;;;;;;0.90;0.68;;;;;;;;;;5053943;28;20036;-36
2021/11/06 12:21:15;;;;;;;0.70;0.70;;;;;;;;;;5054414;28;20033;-36
2021/11/06 12:23:45;;;;;;;4.45;1.17;;;;;;;;;;5053880;28;20033;-36
2021/11/06 12:26:30;;;;;;;1.10;0.90;;;;;;;;;;5053993;28;20025;-36
2021/11/06 12:29:19;;;;;;;2.15;0.90;;;;;;;;;;5054279;28;20029;-36
2021/11/06 12:31:46;;;;;;;1.08;0.80;;;;;;;;;;5050644;28;20037;-36
2021/11/06 12:34:30;;;;;;;1.48;0.95;;;;;;;;;;5053801;28;20025;-36
2021/11/06 12:36:56;;;;;;;10.10;1.25;;;;;;;;;;5072612;28;20048;-36
2021/11/06 12:39:41;;;;;;;3.13;1.00;;;;;;;;;;5073740;28;20039;-35
2021/11/06 12:42:12;;;;;;;1.70;0.88;;;;;;;;;;5073144;28;20037;-36
2021/11/06 12:44:51;;;;;;;1.45;1.20;;;;;;;;;;5073562;28;20115;-36
2021/11/06 12:47:17;;;;;;;1.05;0.82;;;;;;;;;;5055572;28;20051;-36
2021/11/06 12:49:42;;;;;;;3.80;1.10;;;;;;;;;;5073498;28;20075;-36
2021/11/06 12:52:08;;;;;;;3.83;1.40;;;;;;;;;;5055562;28;20578;-36
2021/11/06 12:54:34;;;;;;;1.00;0.80;;;;;;;;;;5073353;28;20013;-36
2021/11/06 12:57:01;;;;;;;1.30;1.10;;;;;;;;;;5072009;28;20035;-36
2021/11/06 12:59:27;;;;;;;1.67;0.73;;;;;;;;;;5073281;28;20035;-36
2021/11/06 13:01:54;;;;;;;1.50;1.40;;;;;;;;;;5073098;28;20032;-36
2021/11/06 13:04:20;;;;;;;2.00;1.33;;;;;;;;;;5073260;28;20029;-36
2021/11/06 13:06:48;;;;;;;2.53;1.02;;;;;;;;;;5073231;28;20467;-36
2021/11/06 13:09:26;;;;;;;2.13;1.35;;;;;;;;;;5073325;28;20645;-36
2021/11/06 13:11:54;;;;;;;1.63;1.10;;;;;;;;;;5073005;28;20088;-36
2021/11/06 13:14:27;;;;;;;1.23;0.82;;;;;;;;;;5072972;28;20489;-36
2021/11/06 13:17:02;;;;;;;1.33;1.20;;;;;;;;;;5073091;28;20037;-36
2021/11/06 13:19:43;;;;;;;1.83;1.00;;;;;;;;;;5073114;28;20046;-36
2021/11/06 13:22:10;;;;;;;1.63;1.17;;;;;;;;;;5072889;28;20021;-36
2021/11/06 13:24:53;;;;;;;1.20;1.10;;;;;;;;;;5072465;28;20020;-36
2021/11/06 13:27:37;;;;;;;1.42;1.00;;;;;;;;;;5072800;28;20029;-36
2021/11/06 13:30:15;;;;;;;1.30;0.93;;;;;;;;;;5072711;28;20470;-36
2021/11/06 13:32:51;;;;;;;2.30;1.20;;;;;;;;;;5072548;28;20024;-37
2021/11/06 13:35:17;;;;;;;3.03;1.23;;;;;;;;;;5072495;28;20503;-36
2021/11/06 13:37:43;;;;;;;1.77;0.90;;;;;;;;;;5072394;28;20040;-36
2021/11/06 13:40:09;;;;;;;2.00;1.20;;;;;;;;;;5072749;28;20491;-36
2021/11/06 13:42:34;;;;;;;1.65;1.05;;;;;;;;;;5072430;28;20089;-36
2021/11/06 13:45:11;;;;;;;2.35;1.10;;;;;;;;;;5072259;28;20042;-36
2021/11/06 13:47:46;;;;;;;1.58;1.00;;;;;;;;;;5072355;28;20028;-36
2021/11/06 13:50:11;;;;;;;1.85;1.10;;;;;;;;;;5071182;28;20063;-36
2021/11/06 13:52:40;;;;;;;1.00;0.80;;;;;;;;;;5070958;28;20052;-36
2021/11/06 13:55:11;;;;;;;1.13;0.90;;;;;;;;;;5072460;28;20024;-36
2021/11/06 13:57:36;;;;;;;1.88;1.15;;;;;;;;;;5072170;28;20111;-36
2021/11/06 14:00:05;;;;;;;3.25;1.13;;;;;;;;;;5071977;28;20103;-36
2021/11/06 14:02:38;;;;;;;1.57;1.47;;;;;;;;;;5072140;28;20068;-36
2021/11/06 14:05:06;;;;;;;1.50;1.40;;;;;;;;;;5072049;28;20268;-36
2021/11/06 14:07:33;;;;;;;1.10;0.95;;;;;;;;;;5071962;28;20024;-36
2021/11/06 14:10:02;;;;;;;0.13;0.13;;;;;;;;;;5072022;28;20041;-36
2021/11/06 14:12:39;;;;;;;2.50;1.30;;;;;;;;;;5071758;28;20020;-36
2021/11/06 14:15:06;;;;;;;2.45;1.58;;;;;;;;;;5070723;28;20094;-36
2021/11/06 14:17:42;;;;;;;2.30;1.83;;;;;;;;;;5071688;28;20024;-35
2021/11/06 14:20:08;;;;;;;1.35;0.93;;;;;;;;;;5071760;28;20109;-36
2021/11/06 14:22:42;;;;;;;1.20;1.02;;;;;;;;;;5071884;28;20020;-36
2021/11/06 14:25:22;;;;;;;1.17;0.55;;;;;;;;;;5072066;28;20032;-36
2021/11/06 14:28:00;;;;;;;1.67;1.00;;;;;;;;;;5071574;28;20119;-36
2021/11/06 14:30:25;;;;;;;0.65;0.65;;;;;;;;;;5071794;28;20032;-36
2021/11/06 14:32:55;;;;;;;2.55;1.75;;;;;;;;;;5071555;28;20458;-36
2021/11/06 14:35:27;;;;;;;1.83;1.17;;;;;;;;;;5070681;28;20046;-36
2021/11/06 14:37:54;;;;;;;1.67;1.30;;;;;;;;;;5071437;28;20045;-36
2021/11/06 14:40:20;;;;;;;2.28;1.02;;;;;;;;;;5071516;28;20037;-36
2021/11/06 14:42:46;;;;;;;3.60;1.55;;;;;;;;;;5071353;28;20078;-36